Latest Weather Observations for Edithburgh

IDS60801

Issued at 6:35 pm CST Saturday 19 April 2014 (issued every 30 minutes, with the page automatically refreshed every 10 minutes)

About weather observations | Map of weather stations | Latest weather observations for SA | Other Formats
Station Details ID: 022046 Name: EDITHBURGH Lat: -35.11 Lon: 137.74 Height: 6.0 m
Data from the previous 72 hours. | See also: Recent months at Edithburgh
Date/Time
CST
Temp
°C
App
Temp
°C
Dew
Point
Rel
Hum
%
Delta-T
°C
Wind Press
QNH
hPa
Press
MSL
hPa
Rain
since 9 am
mm
Dir
 
Spd
km/h
Gust
km/h
Spd
kts
Gust
kts
19/06:30pm 15.2 14.0 8.0 62 3.6 ENE 4 6 2 3 1018.5 1018.5 0.0
19/06:00pm 15.5 14.3 8.1 61 3.7 NE 4 6 2 3 1018.5 1018.5 0.0
19/05:30pm 15.7 14.4 7.7 59 4.0 E 4 6 2 3 1018.7 1018.7 0.0
19/05:00pm 15.9 14.3 7.9 59 4.0 E 6 9 3 5 1018.7 - 0.0
19/04:30pm 15.9 13.6 7.4 57 4.2 ENE 9 13 5 7 1018.7 1018.7 0.0
19/04:00pm 16.1 14.2 7.7 57 4.2 E 7 11 4 6 1019.0 - 0.0
19/03:30pm 16.0 13.4 7.8 58 4.1 ENE 11 15 6 8 1019.1 1019.1 0.0
19/03:00pm 16.5 13.9 7.7 56 4.4 E 11 15 6 8 1019.2 1019.2 0.0
19/02:30pm 16.4 14.3 8.1 58 4.2 ESE 9 13 5 7 1019.3 1019.3 0.0
19/02:00pm 16.0 13.5 8.3 60 3.9 SE 11 15 6 8 1019.6 - 0.0
19/01:30pm 15.6 13.4 9.2 65 3.3 SSE 11 15 6 8 1020.1 1020.0 0.0
19/01:00pm 14.4 12.9 10.4 77 2.1 S 9 13 5 7 1020.7 - 0.0
19/12:30pm 14.4 12.1 10.4 77 2.1 W 13 17 7 9 1021.4 1021.3 0.0
19/12:00pm 15.6 13.3 8.9 64 3.4 W 11 19 6 10 1021.9 1021.8 0.0
19/11:30am 15.8 14.2 8.9 63 3.5 WSW 7 13 4 7 1022.1 1022.0 0.0
19/11:00am 16.3 13.9 8.6 60 3.9 N 11 15 6 8 1022.2 - 0.0
19/10:30am 16.2 13.6 7.6 56 4.3 N 11 17 6 9 1022.4 1022.3 0.0
19/10:00am 15.8 13.2 7.8 59 4.0 NNW 11 13 6 7 1022.7 - 0.0
19/09:30am 15.4 13.1 8.9 65 3.3 N 11 17 6 9 1023.0 1022.9 0.0
19/09:00am 14.2 13.1 10.1 76 2.1 N 6 9 3 5 1023.1 1023.0 0.2
19/08:30am 14.4 13.0 9.7 73 2.4 N 7 11 4 6 1023.1 1023.0 0.2
19/08:00am 15.4 13.9 9.1 66 3.2 NE 7 11 4 6 1022.7 - 0.2
19/07:30am 15.4 14.0 9.4 67 3.1 SE 7 11 4 6 1022.4 1022.3 0.2
19/07:00am 15.0 13.4 8.9 67 3.1 ESE 7 11 4 6 1022.3 - 0.2
19/06:30am 14.9 13.5 8.8 67 3.1 E 6 9 3 5 1022.2 1022.1 0.2
19/06:00am 14.9 14.6 8.5 65 3.2 ESE 0 0 0 0 1022.2 1022.1 0.2
19/05:30am 15.0 13.3 8.2 64 3.4 E 7 13 4 7 1022.0 1021.9 0.2
19/05:00am 15.4 13.4 7.3 58 4.0 SSE 7 9 4 5 1022.1 - 0.2
19/04:30am 15.2 13.9 7.5 60 3.8 SE 4 7 2 4 1022.0 1021.9 0.2
19/04:00am 15.4 12.7 7.3 58 4.0 E 11 17 6 9 1021.9 - 0.2
19/03:30am 15.2 13.0 7.7 61 3.7 SE 9 15 5 8 1021.9 1021.8 0.2
19/03:00am 15.2 12.9 7.3 59 3.9 SSE 9 15 5 8 1022.0 1021.9 0.2
19/02:30am 15.1 13.0 8.1 63 3.5 S 9 13 5 7 1022.2 1022.1 0.2
19/02:00am 15.1 13.2 9.0 67 3.1 SSE 9 13 5 7 1022.5 - 0.2
19/01:30am 15.0 12.8 8.0 63 3.5 S 9 13 5 7 1022.8 1022.7 0.2
19/01:00am 15.1 12.0 9.0 67 3.1 S 15 20 8 11 1023.0 - 0.2
19/12:30am 13.5 11.2 7.6 67 2.9 SSW 9 11 5 6 1023.1 1023.0 0.2
19/12:00am 13.7 11.6 6.8 63 3.3 S 7 13 4 7 1023.2 1023.1 0.2
 
Date/Time
CST
Temp
°C
App
Temp
°C
Dew
Point
Rel
Hum
%
Delta-T
°C
Wind Press
QNH
hPa
Press
MSL
hPa
Rain
since 9 am
mm
Dir
 
Spd
km/h
Gust
km/h
Spd
kts
Gust
kts
18/11:30pm 14.5 11.7 5.3 54 4.3 SSE 9 13 5 7 1023.3 1023.2 0.2
18/11:00pm 14.8 11.7 5.5 53 4.4 SSE 11 17 6 9 1023.4 - 0.2
18/10:30pm 15.2 12.0 7.0 58 4.0 SSE 13 19 7 10 1023.5 1023.4 0.2
18/10:00pm 15.0 12.1 6.5 57 4.1 SSE 11 17 6 9 1023.7 - 0.2
18/09:30pm 15.3 11.7 6.6 56 4.2 SSE 15 19 8 10 1023.7 1023.6 0.2
18/09:00pm 14.9 11.5 5.9 55 4.3 SSE 13 17 7 9 1023.7 1023.6 0.2
18/08:30pm 15.0 11.0 4.9 51 4.7 SSE 15 22 8 12 1023.6 1023.5 0.2
18/08:00pm 15.3 10.8 4.2 47 5.1 SSE 17 22 9 12 1023.4 - 0.2
18/07:30pm 15.4 10.8 3.8 46 5.3 SSE 17 22 9 12 1023.4 1023.3 0.2
18/07:00pm 15.6 10.9 2.9 42 5.7 S 17 26 9 14 1023.2 - 0.2
18/06:30pm 15.6 11.3 5.2 50 4.9 S 17 22 9 12 1023.0 1022.9 0.2
18/06:00pm 15.9 11.5 6.7 54 4.5 SSE 19 26 10 14 1023.0 1022.9 0.2
18/05:30pm 16.4 12.0 7.3 55 4.5 SSE 20 26 11 14 1022.8 1022.7 0.2
18/05:00pm 16.9 12.0 6.7 51 5.0 SSE 22 30 12 16 1022.7 - 0.2
18/04:30pm 17.2 12.5 6.1 48 5.4 SSE 20 26 11 14 1022.6 1022.5 0.2
18/04:00pm 18.0 12.9 6.2 46 5.8 SSE 22 28 12 15 1022.5 - 0.2
18/03:30pm 18.1 13.5 6.3 46 5.8 SSE 20 28 11 15 1022.4 1022.3 0.2
18/03:00pm 18.1 13.7 7.3 49 5.4 SSE 20 26 11 14 1022.4 1022.3 0.2
18/02:30pm 18.7 14.0 6.1 43 6.2 SSE 20 26 11 14 1022.3 1022.2 0.2
18/02:00pm 19.1 14.8 6.9 45 6.1 SSE 19 24 10 13 1022.2 - 0.2
18/01:30pm 19.2 14.7 6.8 44 6.2 S 20 24 11 13 1022.2 1022.1 0.2
18/01:00pm 19.1 15.0 6.1 42 6.4 S 17 26 9 14 1022.4 - 0.2
18/12:30pm 19.0 14.6 6.5 44 6.2 S 19 26 10 14 1022.5 1022.4 0.2
18/12:00pm 19.5 15.1 7.2 45 6.2 S 20 30 11 16 1022.7 1022.6 0.2
18/11:30am 19.3 15.7 8.2 48 5.7 S 17 22 9 12 1022.8 1022.7 0.2
18/11:00am 19.1 15.0 8.7 51 5.4 S 20 28 11 15 1022.7 - 0.2
18/10:30am 18.6 13.6 8.0 50 5.4 SSW 24 30 13 16 1022.8 1022.7 0.2
18/10:00am 18.6 14.4 9.9 57 4.6 SSW 22 32 12 17 1022.7 - 0.0
18/09:30am 17.9 12.9 11.0 64 3.7 S 28 33 15 18 1022.6 1022.5 0.0
18/09:00am 17.8 13.2 11.1 65 3.6 SSW 26 35 14 19 1022.2 1022.1 0.0
18/08:30am 17.9 14.0 12.1 69 3.2 SSW 24 33 13 18 1021.9 1021.8 0.0
18/08:00am 17.0 12.5 12.7 76 2.4 SSW 28 37 15 20 1021.4 - 0.0
18/07:30am 16.4 12.4 13.0 80 1.9 SSW 26 33 14 18 1020.9 1020.8 0.0
18/07:00am 16.1 12.4 13.8 86 1.3 SSW 26 33 14 18 1020.4 - 0.0
18/06:30am 16.3 14.2 15.3 94 0.6 WSW 20 28 11 15 1019.9 1019.8 0.0
18/06:00am 15.6 13.9 14.7 94 0.5 WNW 17 22 9 12 1019.2 1019.2 0.0
18/05:30am 14.3 13.8 13.8 97 0.3 WNW 9 11 5 6 1019.3 1019.3 0.0
18/05:00am 14.1 13.1 13.4 96 0.4 WNW 11 15 6 8 1019.2 - 0.0
18/04:30am 13.8 12.3 13.1 96 0.4 WNW 13 17 7 9 1019.3 1019.3 0.0
18/04:00am 14.0 12.6 13.5 97 0.3 WNW 13 17 7 9 1019.2 - 0.0
18/03:30am 12.9 11.5 12.3 96 0.3 WNW 11 15 6 8 1019.1 1019.1 0.0
18/03:00am 13.4 11.8 12.8 96 0.3 WNW 13 17 7 9 1019.2 1019.2 0.0
18/02:30am 13.7 11.8 13.0 96 0.4 WNW 15 19 8 10 1019.2 1019.2 0.0
18/02:00am 13.7 11.8 13.0 96 0.4 WNW 15 17 8 9 1019.4 - 0.0
18/01:30am 13.5 11.9 12.8 95 0.4 WNW 13 17 7 9 1019.3 1019.3 0.0
18/01:00am 14.0 12.5 13.1 94 0.5 WNW 13 15 7 8 1019.2 - 0.0
18/12:30am 14.6 12.5 13.5 93 0.6 W 17 20 9 11 1019.2 1019.2 0.0
18/12:00am 14.8 13.1 13.7 93 0.6 WNW 15 19 8 10 1019.2 1019.2 0.0
 
Date/Time
CST
Temp
°C
App
Temp
°C
Dew
Point
Rel
Hum
%
Delta-T
°C
Wind Press
QNH
hPa
Press
MSL
hPa
Rain
since 9 am
mm
Dir
 
Spd
km/h
Gust
km/h
Spd
kts
Gust
kts
17/11:30pm 14.5 13.2 13.8 96 0.4 WNW 13 15 7 8 1019.2 1019.2 0.0
17/11:00pm 14.9 13.8 14.4 97 0.3 WNW 13 15 7 8 1019.4 - 0.0
17/10:30pm 13.5 12.2 12.6 94 0.5 NW 11 13 6 7 1019.6 1019.6 0.0
17/10:00pm 14.3 13.3 13.4 94 0.5 WNW 11 13 6 7 1019.9 - 0.0
17/09:30pm 14.7 13.7 13.4 92 0.7 WNW 11 13 6 7 1020.0 1019.9 0.0
17/09:00pm 14.5 13.0 13.0 91 0.8 WNW 13 15 7 8 1019.9 1019.8 0.0
17/08:30pm 15.4 13.8 12.9 85 1.4 WNW 13 17 7 9 1019.6 1019.6 0.0
17/08:00pm 16.1 14.0 12.3 78 2.1 WNW 15 17 8 9 1019.3 - 0.0
17/07:30pm 14.7 13.3 10.9 78 2.0 NW 9 11 5 6 1018.9 1018.9 0.0
17/07:00pm 15.4 15.0 12.3 82 1.7 NNW 6 6 3 3 1018.7 - 0.0
17/06:30pm 17.8 18.6 14.7 82 1.8 N 4 7 2 4 1018.6 1018.6 0.0
17/06:00pm 18.2 18.7 15.5 84 1.6 NE 7 9 4 5 1018.5 1018.5 0.0
17/05:30pm 18.6 19.1 15.5 82 1.8 NE 7 11 4 6 1018.5 1018.5 0.0
17/05:00pm 19.0 19.1 15.4 79 2.1 ENE 9 11 5 6 1018.5 - 0.0
17/04:30pm 19.2 18.8 15.3 78 2.3 ENE 11 15 6 8 1018.6 1018.6 0.0
17/04:00pm 19.5 19.2 15.4 77 2.4 ENE 11 15 6 8 1018.8 - 0.0
17/03:30pm 19.6 19.3 15.4 77 2.5 ENE 11 15 6 8 1019.1 1019.1 0.0
17/03:00pm 19.8 19.0 15.2 75 2.7 NE 13 17 7 9 1019.2 1019.2 0.0
17/02:30pm 20.4 19.7 15.3 72 3.0 ENE 13 17 7 9 1019.4 1019.4 0.0
17/02:00pm 20.2 18.9 14.7 70 3.2 ENE 15 19 8 10 1019.5 - 0.0
17/01:30pm 19.8 19.0 13.9 69 3.4 ENE 11 17 6 9 1020.0 1019.9 0.0
17/01:00pm 20.5 19.6 13.7 65 3.9 ENE 11 17 6 9 1020.2 - 0.0
17/12:30pm 19.7 19.3 15.1 75 2.7 ESE 11 17 6 9 1020.6 1020.5 0.0
17/12:00pm 19.5 19.3 15.8 79 2.2 SE 11 13 6 7 1021.2 1021.1 0.0
17/11:30am 19.9 19.1 15.1 74 2.8 SE 13 17 7 9 1021.4 1021.3 0.0
17/11:00am 20.8 19.7 14.2 66 3.8 ENE 13 15 7 8 1021.5 - 0.0
17/10:30am 19.3 18.7 14.6 74 2.7 NE 11 13 6 7 1021.5 1021.4 0.0
17/10:00am 19.9 19.7 15.7 77 2.5 NE 11 15 6 8 1021.5 - 0.0
17/09:30am 18.8 18.8 15.2 79 2.1 NNW 9 13 5 7 1021.5 1021.4 0.0
17/09:00am 17.7 18.4 16.2 91 0.9 NNW 7 11 4 6 1021.4 1021.3 0.0
17/08:30am 16.6 17.6 16.3 98 0.2 NNW 6 9 3 5 1021.2 1021.1 0.0
17/08:00am 14.9 15.4 14.9 100 0.0 NW 6 7 3 4 1021.2 - 0.0
17/07:30am 13.0 12.2 13.0 100 0.0 NNW 9 9 5 5 1020.8 1020.7 0.0
17/07:00am 11.9 10.8 11.9 100 0.0 NNW 9 9 5 5 1020.4 - 0.0
17/06:30am 12.1 11.4 11.9 99 0.1 NNW 7 9 4 5 1020.4 1020.3 0.0
17/06:00am 11.3 10.3 11.1 99 0.1 NNW 7 9 4 5 1020.3 1020.2 0.0
17/05:30am 11.8 11.0 11.6 99 0.1 NNW 7 9 4 5 1020.2 1020.1 0.0
17/05:00am 12.5 12.1 12.3 99 0.1 NW 6 11 3 6 1020.1 - 0.0
17/04:30am 13.2 12.1 13.0 99 0.1 WNW 11 15 6 8 1020.0 1019.9 0.0
17/04:00am 13.3 11.7 12.9 97 0.2 WNW 13 17 7 9 1019.7 - 0.0
17/03:30am 13.2 12.0 12.8 97 0.2 WNW 11 15 6 8 1019.6 1019.6 0.0
17/03:00am 12.0 11.4 11.8 99 0.1 WNW 6 9 3 5 1019.6 1019.6 0.0
17/02:30am 12.2 11.4 11.8 97 0.2 NW 7 11 4 6 1019.9 1019.8 0.0
17/02:00am 13.4 12.6 12.8 96 0.3 WNW 9 13 5 7 1020.2 - 0.0
17/01:30am 12.9 12.3 12.3 96 0.3 NW 7 9 4 5 1020.3 1020.2 0.0
17/01:00am 14.0 12.9 13.1 94 0.5 NW 11 15 6 8 1020.2 - 0.0
17/12:30am 13.9 12.8 13.2 96 0.4 WNW 11 15 6 8 1020.2 1020.1 0.0
17/12:00am 12.0 10.7 11.2 95 0.4 NW 9 11 5 6 1020.4 1020.3 0.0
 
Date/Time
CST
Temp
°C
App
Temp
°C
Dew
Point
Rel
Hum
%
Delta-T
°C
Wind Press
QNH
hPa
Press
MSL
hPa
Rain
since 9 am
mm
Dir
 
Spd
km/h
Gust
km/h
Spd
kts
Gust
kts
16/11:30pm 11.1 9.1 10.3 95 0.4 NNW 11 13 6 7 1020.4 1020.3 0.0
16/11:00pm 10.7 8.6 9.7 93 0.5 NNW 11 11 6 6 1020.7 - 0.0
16/10:30pm 11.7 10.2 10.5 92 0.6 NW 9 9 5 5 1020.7 1020.6 0.0
16/10:00pm 11.8 10.3 10.4 91 0.7 NW 9 9 5 5 1020.6 - 0.0
16/09:30pm 12.4 11.4 10.9 90 0.8 WNW 7 9 4 5 1020.5 1020.4 0.0
16/09:00pm 13.1 11.8 11.4 89 0.9 W 9 11 5 6 1020.4 1020.3 0.0
16/08:30pm 13.2 11.9 11.1 87 1.1 W 9 11 5 6 1020.3 1020.2 0.0
16/08:00pm 13.0 11.7 9.9 81 1.6 W 7 7 4 4 1020.2 - 0.0
16/07:30pm 14.6 14.2 11.0 79 1.9 WSW 4 4 2 2 1020.0 1019.9 0.0
16/07:00pm 15.9 15.2 12.0 77 2.1 SW 7 7 4 4 1019.9 - 0.0

Other Formats:

Comma delimited format used in spreadsheet applications
http://www.bom.gov.au/fwo/IDS60801/IDS60801.94809.axf

JavaScript Object Notation format (JSON) in row-major order
http://www.bom.gov.au/fwo/IDS60801/IDS60801.94809.json